Time;durP1;ratioP1;P1;durP2;ratioP2;P2;SDS_P1;SDS_P2;PMS_P1;PMS_P2;Temp;Humidity;BMP_temperature;BMP_pressure;BME280_temperature;BME280_humidity;BME280_pressure;Samples;Min_cycle;Max_cycle;Signal;HPM_P1;HPM_P2
2023/12/05 00:00:08;;;;;;;10.25;1.25;;;10.30;99.90;;;;;;7385083;19;20219;-75
2023/12/05 00:02:36;;;;;;;9.10;1.63;;;10.40;99.90;;;;;;7386687;19;20085;-74
2023/12/05 00:05:09;;;;;;;2.95;1.30;;;10.30;99.90;;;;;;7384717;19;20011;-74
2023/12/05 00:07:38;;;;;;;4.40;1.50;;;10.40;99.90;;;;;;7384292;19;19999;-75
2023/12/05 00:10:08;;;;;;;9.07;1.40;;;10.40;99.90;;;;;;7386692;19;20043;-74
2023/12/05 00:12:36;;;;;;;4.93;1.58;;;10.30;99.90;;;;;;7408018;19;20010;-74
2023/12/05 00:15:06;;;;;;;10.65;1.60;;;10.40;99.90;;;;;;7385817;19;20478;-75
2023/12/05 00:17:34;;;;;;;2.90;1.38;;;10.40;99.90;;;;;;7383948;19;20015;-74
2023/12/05 00:20:03;;;;;;;3.58;1.05;;;10.50;99.90;;;;;;7385077;19;20102;-74
2023/12/05 00:22:34;;;;;;;8.00;2.08;;;10.20;99.90;;;;;;7384655;19;19998;-75
2023/12/05 00:25:03;;;;;;;10.80;1.38;;;10.10;99.90;;;;;;7386719;19;20014;-74
2023/12/05 00:27:32;;;;;;;5.85;1.20;;;9.90;99.90;;;;;;7408505;19;20035;-74
2023/12/05 00:30:00;;;;;;;5.40;1.58;;;10.20;99.90;;;;;;7385410;19;20414;-75
2023/12/05 00:32:29;;;;;;;3.42;1.45;;;10.20;99.90;;;;;;7385124;19;20010;-74
2023/12/05 00:34:58;;;;;;;3.40;1.35;;;10.20;99.90;;;;;;7385293;19;20029;-75
2023/12/05 00:37:27;;;;;;;2.67;1.15;;;10.30;99.90;;;;;;7383413;19;20400;-73
2023/12/05 00:39:58;;;;;;;6.85;1.20;;;10.20;99.90;;;;;;7386797;19;20023;-73
2023/12/05 00:42:27;;;;;;;2.20;1.33;;;10.00;99.90;;;;;;7405212;19;20011;-75
2023/12/05 00:44:56;;;;;;;8.45;1.30;;;10.20;99.90;;;;;;7385066;19;20013;-74
2023/12/05 00:47:24;;;;;;;9.88;1.33;;;10.50;99.90;;;;;;7384405;19;20235;-74
2023/12/05 00:49:53;;;;;;;5.90;1.20;;;10.50;99.90;;;;;;7382488;19;20063;-74
2023/12/05 00:52:22;;;;;;;7.22;1.25;;;10.50;99.90;;;;;;7385411;19;20006;-73
2023/12/05 00:54:50;;;;;;;3.20;1.05;;;10.20;99.90;;;;;;7401892;19;20094;-73
2023/12/05 00:57:22;;;;;;;3.28;1.30;;;10.40;99.90;;;;;;7384593;19;20075;-74
2023/12/05 00:59:50;;;;;;;5.78;1.30;;;10.30;99.90;;;;;;7383186;19;20007;-74
2023/12/05 01:02:20;;;;;;;4.75;1.20;;;10.30;99.90;;;;;;7383879;19;20006;-74
2023/12/05 01:04:49;;;;;;;11.60;1.10;;;10.30;99.90;;;;;;7384844;19;20009;-73
2023/12/05 01:07:18;;;;;;;4.05;1.15;;;10.50;99.90;;;;;;7385411;19;20230;-74
2023/12/05 01:09:46;;;;;;;3.10;1.10;;;10.50;99.90;;;;;;7405254;19;20017;-73
2023/12/05 01:12:15;;;;;;;3.25;0.90;;;10.40;99.90;;;;;;7383625;19;20011;-73
2023/12/05 01:14:46;;;;;;;2.15;0.80;;;10.30;99.90;;;;;;7381935;19;20019;-74
2023/12/05 01:19:58;;;;;;;4.03;1.13;;;10.50;99.90;;;;;;7375127;19;19931;-74
2023/12/05 01:22:27;;;;;;;8.23;1.52;;;10.50;99.90;;;;;;7383900;19;20020;-75
2023/12/05 01:24:58;;;;;;;3.42;0.85;;;10.30;99.90;;;;;;7385537;19;20010;-75
2023/12/05 01:27:26;;;;;;;6.03;1.25;;;10.40;99.90;;;;;;7402563;19;20011;-74
2023/12/05 01:29:58;;;;;;;3.95;0.75;;;10.60;99.90;;;;;;7386335;19;20014;-75
2023/12/05 01:32:26;;;;;;;2.03;0.90;;;10.40;99.90;;;;;;7385801;19;20007;-74
2023/12/05 01:34:56;;;;;;;6.90;1.00;;;10.40;99.90;;;;;;7385574;19;20058;-74
2023/12/05 01:37:25;;;;;;;6.55;1.20;;;10.30;99.90;;;;;;7382650;19;20013;-73
2023/12/05 01:39:54;;;;;;;11.05;1.20;;;10.40;99.90;;;;;;7402867;19;20194;-74
2023/12/05 01:42:22;;;;;;;4.85;0.93;;;10.50;99.90;;;;;;7404237;19;20385;-74
2023/12/05 01:44:52;;;;;;;6.68;1.02;;;10.50;99.90;;;;;;7379790;19;20425;-74
2023/12/05 01:47:23;;;;;;;3.28;0.70;;;10.30;99.90;;;;;;7379195;19;20007;-75
2023/12/05 01:49:51;;;;;;;;;;;10.40;99.90;;;;;;7380571;19;20006;-74
2023/12/05 01:52:20;;;;;;;1.48;0.82;;;10.40;99.90;;;;;;7380900;19;19911;-74
2023/12/05 01:54:49;;;;;;;4.45;1.00;;;10.30;99.90;;;;;;7401699;19;20017;-75
2023/12/05 01:57:18;;;;;;;3.97;0.88;;;10.40;99.90;;;;;;7382723;19;20411;-75
2023/12/05 01:59:47;;;;;;;1.55;0.70;;;10.30;99.90;;;;;;7379708;19;20086;-74
2023/12/05 02:02:16;;;;;;;0.82;0.70;;;10.50;99.90;;;;;;7378881;19;19999;-74
2023/12/05 02:04:47;;;;;;;9.45;1.00;;;10.40;99.90;;;;;;7381075;19;20031;-74
2023/12/05 02:07:17;;;;;;;2.92;1.20;;;10.50;99.90;;;;;;7381123;19;20022;-74
2023/12/05 02:09:47;;;;;;;13.90;1.48;;;10.50;99.90;;;;;;7404088;19;20353;-74
2023/12/05 02:12:15;;;;;;;2.28;1.10;;;10.60;99.90;;;;;;7381852;19;20014;-75
2023/12/05 02:14:45;;;;;;;2.63;0.80;;;10.60;99.90;;;;;;7379716;19;20023;-75
2023/12/05 02:17:20;;;;;;;5.15;1.35;;;10.60;99.90;;;;;;7379162;19;20054;-74
2023/12/05 02:20:01;;;;;;;3.72;0.88;;;10.50;99.90;;;;;;7381326;19;20275;-75
2023/12/05 02:23:05;;;;;;;1.73;0.63;;;10.30;99.90;;;;;;7383834;19;20367;-74
2023/12/05 02:25:45;;;;;;;0.80;0.68;;;10.50;99.90;;;;;;7379234;19;20017;-74
2023/12/05 02:28:18;;;;;;;1.60;0.60;;;10.40;99.90;;;;;;7379841;19;20010;-74
2023/12/05 02:30:46;;;;;;;4.22;1.00;;;10.50;99.90;;;;;;7401752;19;20078;-73
2023/12/05 02:33:15;;;;;;;2.42;0.75;;;10.30;99.90;;;;;;7380075;19;20311;-73
2023/12/05 02:35:44;;;;;;;1.67;0.70;;;10.30;99.90;;;;;;7379399;19;20002;-74
2023/12/05 02:38:22;;;;;;;1.85;0.80;;;10.40;99.90;;;;;;7378542;19;20010;-74
2023/12/05 02:40:59;;;;;;;2.53;0.85;;;10.40;99.90;;;;;;7378282;19;19999;-73
2023/12/05 02:43:38;;;;;;;4.68;0.63;;;10.20;99.90;;;;;;7378944;19;20032;-75
2023/12/05 02:46:10;;;;;;;2.95;0.68;;;10.20;99.90;;;;;;7377316;19;20011;-73
2023/12/05 02:48:40;;;;;;;6.80;0.70;;;10.30;99.90;;;;;;7398808;19;20019;-73
2023/12/05 02:51:09;;;;;;;1.83;0.70;;;10.20;99.90;;;;;;7376225;19;20119;-74
2023/12/05 02:53:37;;;;;;;10.65;1.02;;;10.30;99.90;;;;;;7380176;19;20090;-74
2023/12/05 02:56:08;;;;;;;13.85;0.77;;;10.00;99.90;;;;;;7375879;19;20055;-74
2023/12/05 02:58:39;;;;;;;4.57;0.95;;;10.00;99.90;;;;;;7377152;19;20158;-74
2023/12/05 03:01:09;;;;;;;2.65;0.77;;;10.10;99.90;;;;;;7378042;19;20094;-74
2023/12/05 03:03:37;;;;;;;4.47;0.80;;;9.70;99.90;;;;;;7404527;19;20015;-75
2023/12/05 03:06:07;;;;;;;1.98;0.73;;;9.80;99.90;;;;;;7381004;19;20011;-75
2023/12/05 03:08:35;;;;;;;5.32;1.00;;;9.90;99.90;;;;;;7377933;19;20003;-74
2023/12/05 03:11:04;;;;;;;11.70;0.90;;;9.90;99.90;;;;;;7381899;19;20006;-74
2023/12/05 03:13:33;;;;;;;2.85;0.90;;;10.00;99.90;;;;;;7376802;19;20404;-75
2023/12/05 03:16:04;;;;;;;2.75;0.93;;;10.10;99.90;;;;;;7379102;19;20016;-75
2023/12/05 03:18:33;;;;;;;1.17;0.50;;;10.00;99.90;;;;;;7402232;19;20073;-75
2023/12/05 03:21:01;;;;;;;2.38;0.65;;;9.80;99.90;;;;;;7377723;19;20003;-75
2023/12/05 03:23:30;;;;;;;0.55;0.30;;;9.30;99.90;;;;;;7378226;19;19999;-75
2023/12/05 03:25:59;;;;;;;1.60;0.47;;;9.40;99.90;;;;;;7378443;19;20124;-75
2023/12/05 03:28:27;;;;;;;5.30;0.43;;;9.30;99.90;;;;;;7378171;19;20023;-74
2023/12/05 03:30:56;;;;;;;3.08;0.52;;;9.10;99.90;;;;;;7377415;19;20078;-75
2023/12/05 03:33:29;;;;;;;0.47;0.40;;;9.20;99.90;;;;;;7401723;19;20014;-75
2023/12/05 03:35:57;;;;;;;1.35;0.43;;;9.40;99.90;;;;;;7378809;19;20034;-75
2023/12/05 03:38:26;;;;;;;9.82;0.80;;;9.40;99.90;;;;;;7379274;19;20015;-75
2023/12/05 03:40:55;;;;;;;0.47;0.32;;;9.40;99.90;;;;;;7378469;19;20010;-75
2023/12/05 03:43:24;;;;;;;1.10;0.50;;;8.90;99.90;;;;;;7380400;19;20031;-75
2023/12/05 03:45:53;;;;;;;0.80;0.50;;;9.00;99.90;;;;;;7401801;19;20024;-76
2023/12/05 03:48:21;;;;;;;0.60;0.20;;;9.20;99.90;;;;;;7385899;19;20020;-75
2023/12/05 03:50:53;;;;;;;1.80;0.57;;;9.10;99.90;;;;;;7385099;19;20383;-75
2023/12/05 03:53:21;;;;;;;4.55;0.68;;;9.00;99.90;;;;;;7386165;19;20014;-75
2023/12/05 03:55:50;;;;;;;2.47;0.43;;;9.20;99.90;;;;;;7386266;19;20417;-76
2023/12/05 03:58:19;;;;;;;1.05;0.50;;;9.10;99.90;;;;;;7378417;19;20042;-75
2023/12/05 04:00:48;;;;;;;0.90;0.32;;;8.90;99.90;;;;;;7401300;19;20014;-75
2023/12/05 04:03:17;;;;;;;1.02;0.35;;;8.70;99.90;;;;;;7376622;19;20007;-74
2023/12/05 04:05:46;;;;;;;2.15;0.50;;;8.70;99.90;;;;;;7379250;19;20003;-75
2023/12/05 04:08:17;;;;;;;7.72;0.65;;;9.00;99.90;;;;;;7377628;19;20508;-74
2023/12/05 04:10:46;;;;;;;2.97;0.40;;;9.20;99.90;;;;;;7377599;19;20373;-76
2023/12/05 04:13:14;;;;;;;0.73;0.50;;;9.30;99.90;;;;;;7377939;19;20048;-74
2023/12/05 04:15:43;;;;;;;0.93;0.55;;;9.30;99.90;;;;;;7396195;19;20024;-74
2023/12/05 04:18:12;;;;;;;1.60;0.55;;;9.40;99.90;;;;;;7377706;19;20365;-74
2023/12/05 04:20:41;;;;;;;1.50;0.60;;;9.20;99.90;;;;;;7375672;19;20074;-75
2023/12/05 04:23:09;;;;;;;1.23;0.60;;;9.50;99.90;;;;;;7376017;19;20018;-74
2023/12/05 04:25:41;;;;;;;0.73;0.40;;;9.40;99.90;;;;;;7378689;19;20335;-74
2023/12/05 04:28:10;;;;;;;3.17;0.60;;;9.40;99.90;;;;;;7383532;19;20476;-75
2023/12/05 04:30:38;;;;;;;0.65;0.47;;;9.30;99.90;;;;;;7407627;19;20165;-73
2023/12/05 04:33:07;;;;;;;1.33;0.73;;;9.20;99.90;;;;;;7385066;19;20071;-74
2023/12/05 04:35:36;;;;;;;1.02;0.60;;;9.00;99.90;;;;;;7383739;19;20011;-75
2023/12/05 04:38:04;;;;;;;5.53;0.70;;;9.10;99.90;;;;;;7381714;19;20422;-73
2023/12/05 04:40:33;;;;;;;5.57;1.55;;;9.40;99.90;;;;;;7385751;19;20082;-73
2023/12/05 04:43:04;;;;;;;7.32;1.20;;;9.60;99.90;;;;;;7384583;19;20027;-75
2023/12/05 04:45:33;;;;;;;0.95;0.55;;;9.60;99.90;;;;;;7404787;19;20019;-74
2023/12/05 04:48:01;;;;;;;5.82;0.88;;;9.50;99.90;;;;;;7383440;19;20106;-75
2023/12/05 04:50:30;;;;;;;1.08;0.60;;;9.60;99.90;;;;;;7384238;19;20010;-74
2023/12/05 04:52:59;;;;;;;4.30;0.68;;;9.30;99.90;;;;;;7383019;19;20381;-74
2023/12/05 04:55:27;;;;;;;2.05;0.75;;;9.30;99.90;;;;;;7383711;19;20114;-75
2023/12/05 04:57:56;;;;;;;5.13;0.70;;;9.30;99.90;;;;;;7383712;19;20019;-73
2023/12/05 05:00:27;;;;;;;3.88;0.98;;;9.50;99.90;;;;;;7405108;19;20010;-74
2023/12/05 05:02:56;;;;;;;2.40;0.80;;;9.40;99.90;;;;;;7383111;19;20007;-73
2023/12/05 05:05:25;;;;;;;3.63;0.90;;;9.40;99.90;;;;;;7384883;19;20010;-75
2023/12/05 05:07:53;;;;;;;4.53;0.70;;;9.50;99.90;;;;;;7384152;19;20380;-75
2023/12/05 05:10:22;;;;;;;8.23;1.30;;;9.40;99.90;;;;;;7385187;19;20062;-75
2023/12/05 05:12:51;;;;;;;4.22;1.08;;;9.60;99.90;;;;;;7406396;19;20023;-75
2023/12/05 05:15:19;;;;;;;5.13;1.10;;;9.30;99.90;;;;;;7383651;19;20030;-74
2023/12/05 05:17:51;;;;;;;5.07;0.80;;;9.60;99.90;;;;;;7381958;19;20015;-73
2023/12/05 05:20:20;;;;;;;3.67;1.10;;;9.70;99.90;;;;;;7384753;19;20014;-74
2023/12/05 05:22:50;;;;;;;3.70;0.93;;;9.80;99.90;;;;;;7383059;19;20028;-74
2023/12/05 05:25:18;;;;;;;4.45;1.25;;;9.70;99.90;;;;;;7382367;19;20010;-74
2023/12/05 05:27:47;;;;;;;3.60;0.90;;;9.80;99.90;;;;;;7405191;19;20273;-75
2023/12/05 05:30:16;;;;;;;3.33;0.90;;;9.90;99.90;;;;;;7381770;19;20007;-75
2023/12/05 05:32:45;;;;;;;1.75;0.90;;;9.80;99.90;;;;;;7382772;19;20082;-75
2023/12/05 05:35:16;;;;;;;4.95;0.80;;;9.80;99.90;;;;;;7381119;19;20086;-76
2023/12/05 05:37:45;;;;;;;5.80;0.98;;;9.80;99.90;;;;;;7380037;19;20063;-75
2023/12/05 05:40:14;;;;;;;4.22;0.98;;;9.70;99.90;;;;;;7381808;19;21039;-75
2023/12/05 05:42:43;;;;;;;8.60;1.40;;;9.80;99.90;;;;;;7405685;19;20078;-75
2023/12/05 05:45:14;;;;;;;4.70;1.30;;;9.80;99.90;;;;;;7381457;19;20382;-76
2023/12/05 05:47:43;;;;;;;370.92;43.58;;;9.90;99.90;;;;;;7382227;19;20023;-76
2023/12/05 05:50:12;;;;;;;37.50;2.38;;;9.90;99.90;;;;;;7382314;19;20027;-76
2023/12/05 05:52:44;;;;;;;1999.90;132.23;;;10.00;99.90;;;;;;7381650;19;20007;-74
2023/12/05 05:55:12;;;;;;;6.45;1.42;;;9.80;99.90;;;;;;7382157;19;20021;-74
2023/12/05 05:57:41;;;;;;;4.03;1.55;;;10.00;99.90;;;;;;7403511;19;20018;-74
2023/12/05 06:00:13;;;;;;;5.57;1.20;;;10.10;99.90;;;;;;7380542;19;20078;-74
2023/12/05 06:02:42;;;;;;;12.68;1.40;;;10.00;99.90;;;;;;7379002;19;20039;-74
2023/12/05 06:05:11;;;;;;;5.22;1.45;;;10.10;99.90;;;;;;7382016;19;20108;-75
2023/12/05 06:07:42;;;;;;;6.88;1.15;;;10.10;99.90;;;;;;7393499;19;20023;-75
2023/12/05 06:10:12;;;;;;;6.60;1.10;;;9.90;99.90;;;;;;7393321;19;20019;-75
2023/12/05 06:12:40;;;;;;;2.60;1.00;;;9.70;99.90;;;;;;7420148;19;20058;-76
2023/12/05 06:15:10;;;;;;;7.20;1.20;;;9.70;99.90;;;;;;7392446;19;20062;-75
2023/12/05 06:17:38;;;;;;;7.07;1.00;;;9.50;99.90;;;;;;7390619;19;20023;-76
2023/12/05 06:20:09;;;;;;;2.72;1.17;;;9.50;99.90;;;;;;7380751;19;20379;-76
2023/12/05 06:22:38;;;;;;;2.83;0.70;;;9.80;99.90;;;;;;7381754;19;20449;-76
2023/12/05 06:25:10;;;;;;;26.88;4.57;;;9.80;99.90;;;;;;7380901;19;20035;-75
2023/12/05 06:27:38;;;;;;;4.82;1.17;;;9.90;99.90;;;;;;7402761;19;20019;-75
2023/12/05 06:30:08;;;;;;;2.25;1.13;;;9.70;99.90;;;;;;7380501;19;20312;-75
2023/12/05 06:32:37;;;;;;;11.02;1.33;;;9.70;99.90;;;;;;7382643;19;20011;-74
2023/12/05 06:35:06;;;;;;;5.53;1.00;;;9.60;99.90;;;;;;7379681;19;20331;-74
2023/12/05 06:37:35;;;;;;;2.83;1.08;;;9.60;99.90;;;;;;7379409;19;20075;-75
2023/12/05 06:40:04;;;;;;;3.42;1.33;;;9.50;99.90;;;;;;7378943;19;20028;-75
2023/12/05 06:42:35;;;;;;;2.30;1.23;;;9.70;99.90;;;;;;7401729;19;20029;-74
2023/12/05 06:45:04;;;;;;;;;;;9.70;99.90;;;;;;7381638;19;20017;-75
2023/12/05 06:47:33;;;;;;;5.05;1.08;;;9.60;99.90;;;;;;7378184;19;19915;-73
2023/12/05 06:50:05;;;;;;;3.10;1.00;;;9.70;99.90;;;;;;7379905;19;20066;-74
2023/12/05 06:52:33;;;;;;;5.20;1.25;;;9.60;99.90;;;;;;7381137;19;20011;-73
2023/12/05 06:55:02;;;;;;;14.27;1.10;;;9.50;99.90;;;;;;7381413;19;20083;-74
2023/12/05 06:57:31;;;;;;;1.42;0.93;;;9.40;99.90;;;;;;7401173;19;20098;-73
2023/12/05 07:00:02;;;;;;;4.30;1.38;;;9.30;99.90;;;;;;7382271;19;20063;-74
2023/12/05 07:02:31;;;;;;;5.80;0.90;;;9.40;99.90;;;;;;7377128;19;20159;-75
2023/12/05 07:05:04;;;;;;;1.45;1.00;;;9.50;99.90;;;;;;7379082;19;20358;-74
2023/12/05 07:07:32;;;;;;;6.05;1.33;;;9.50;99.90;;;;;;7378686;19;20010;-74
